首页
METAR-TAF:

METAR-TAF

机场 :

Pitt-Greenville Airport

格林维尔, 北卡罗来纳州, 美国

纬度: 35-38N, 经度: 077-24W, 海拔: 8米

当前天气观测

该预报发布于19分钟前的01:35 UTC
风速6节,风向东南
温度 16°C
湿度 88%
气压 1017 hPa
能見度: 16.1公里
天空无云

METAR: KPGV 070135Z AUTO 14006KT 10SM CLR 16/14 A3004 RMK AO2

时间: 21:54 (01:54 UTC)

预报

该预报发布于2小时和28分钟前的23:26 UTC
预报有效从07日的 00点(UTC)到 07日的 24点(UTC)
风速4节,风向多变
能見度: 10公里
散云层高于9000英尺
从 07日的 0900点(UTC)
风速节,风向
能見度: 8.0公里
散云层高于300英尺
多云层高于1000英尺
轻雾
从 07日的 1300点(UTC)
风速4节,风向多变
能見度: 10公里
少量云层高于9000英尺
从 07日的 1800点(UTC)
风速8节,风向西南,有时为15节阵风
能見度: 10公里
散云层高于6000英尺

TAF: KPGV 062326Z 0700/0724 VRB04KT P6SM SCT090 FM070900 00000KT 5SM BR SCT003 BKN010 FM071300 VRB04KT P6SM FEW090 FM071800 23008G15KT P6SM SCT060 AMD LTD TO CLD VIS AND WIND

超过4000个机场的气象观测和天气预报(METAR&TAF报告)。

可查询的气象台以黄色和红色小点在地图上表示。

将鼠标移到小点上方,可查看气象台名称。

然后点击查看天气观测和预报。

如需切换地图:点击带黑十字的绿色按钮放大地图;点击带横线的绿色按钮缩小地图;或者点击绿色箭头查看邻近地区的地图。


METAR-TAF: